Wetterdaten: aktuell Dienstag, 05.05.2026 23:45
Datum Zeit Temp. A. Feuchte A. Luftdruck Regen Wind Richtung Richtung Sonnenschein UV Windböen
05.05.2026 23:45 12,4 °C 82 % 1005,9 hPa 0,0 l/m² 0,0 km/h O-SO 120 ° 0 min 0,0 UV-I 0,0 km/h
05.05.2026 22:45 12,7 °C 80 % 1005,9 hPa 0,0 l/m² 0,0 km/h W-NW 292 ° 0 min 0,0 UV-I 0,0 km/h
05.05.2026 21:45 13,2 °C 78 % 1005,3 hPa 0,0 l/m² 0,0 km/h NW 315 ° 0 min 0,0 UV-I 1,6 km/h
05.05.2026 20:45 13,8 °C 76 % 1004,8 hPa 0,0 l/m² 2,4 km/h W-NW 285 ° 0 min 0,0 UV-I 4,8 km/h
05.05.2026 19:45 14,9 °C 73 % 1004,5 hPa 0,0 l/m² 6,0 km/h W 281 ° 0 min 0,0 UV-I 12,9 km/h
05.05.2026 18:45 15,7 °C 72 % 1004,2 hPa 0,0 l/m² 7,9 km/h W-NW 290 ° 0 min 0,0 UV-I 14,5 km/h
05.05.2026 17:45 16,5 °C 68 % 1004,5 hPa 0,0 l/m² 10,5 km/h NW 325 ° 0 min 0,0 UV-I 20,9 km/h
05.05.2026 16:45 17,4 °C 63 % 1004,1 hPa 0,0 l/m² 9,3 km/h W 278 ° 0 min 0,0 UV-I 17,7 km/h
05.05.2026 15:45 20,4 °C 49 % 1004,4 hPa 0,0 l/m² 10,8 km/h S-SO 168 ° 0 min 0,0 UV-I 19,3 km/h
05.05.2026 14:45 22,7 °C 42 % 1003,9 hPa 0,0 l/m² 2,5 km/h S-SW 204 ° 10 min 1,6 UV-I 8,0 km/h
05.05.2026 13:45 23,1 °C 42 % 1003,9 hPa 0,0 l/m² 2,5 km/h SO 144 ° 45 min 3,5 UV-I 8,0 km/h
05.05.2026 12:45 23,3 °C 45 % 1004,5 hPa 0,0 l/m² 1,6 km/h W-NW 284 ° 60 min 3,5 UV-I 4,8 km/h
05.05.2026 11:45 21,9 °C 54 % 1005,0 hPa 0,0 l/m² 1,5 km/h O 84 ° 55 min 2,7 UV-I 4,8 km/h
05.05.2026 10:45 20,0 °C 59 % 1005,6 hPa 0,0 l/m² 0,0 km/h N-NW 331 ° 60 min 2,3 UV-I 0,0 km/h
05.05.2026 09:45 17,4 °C 66 % 1006,2 hPa 0,0 l/m² 0,8 km/h W-NW 282 ° 35 min 1,8 UV-I 3,2 km/h
05.05.2026 08:45 14,8 °C 73 % 1006,5 hPa 0,0 l/m² 3,1 km/h NW 314 ° 35 min 0,7 UV-I 6,4 km/h
05.05.2026 07:45 12,4 °C 79 % 1006,9 hPa 0,0 l/m² 1,6 km/h N-NO 22 ° 0 min 0,0 UV-I 1,6 km/h
05.05.2026 06:45 11,0 °C 82 % 1006,9 hPa 0,0 l/m² 0,0 km/h NW 315 ° 0 min 0,0 UV-I 3,2 km/h
05.05.2026 05:45 11,4 °C 79 % 1006,8 hPa 0,0 l/m² 0,0 km/h N 0 ° 0 min 0,0 UV-I 0,0 km/h
05.05.2026 04:45 12,3 °C 77 % 1007,3 hPa 0,0 l/m² 3,2 km/h NW 315 ° 0 min 0,0 UV-I 8,0 km/h
05.05.2026 03:45 13,3 °C 74 % 1007,9 hPa 0,0 l/m² 3,2 km/h NW 315 ° 0 min 0,0 UV-I 6,4 km/h
05.05.2026 02:45 14,5 °C 72 % 1007,9 hPa 0,0 l/m² 3,2 km/h NW 315 ° 0 min 0,0 UV-I 6,4 km/h
05.05.2026 01:45 15,3 °C 70 % 1008,4 hPa 0,0 l/m² 4,8 km/h NW 315 ° 0 min 0,0 UV-I 9,7 km/h
05.05.2026 00:45 16,6 °C 65 % 1009,0 hPa 0,0 l/m² 4,8 km/h NW 315 ° 0 min 0,0 UV-I 9,7 km/h
05.05.2026 00:00 17,2 °C 63 % 1009,2 hPa 0,0 l/m² 6,4 km/h W-NW 292 ° 0 min 0,0 UV-I 11,3 km/h
_ Min-Zeit 06:35 15:10 15:10 - 23:45 - - - - 23:45
Minimum _ 10,8 °C 40 % 1003,8 hPa - 0,0 km/h - - - - 0,0 km/h
_ Max-Zeit 12:55 23:45 00:10 23:45 15:50 - - 14:25 12:15 15:55
Maximum _ 23,6 °C 82 % 1009,2 hPa 0,0 l/m² 11,9 km/h
W
- - 5 min 4,5 UV-I 27,4 km/h
S
Durchschnitt _ 16,2 °C 67 % 1005,9 hPa #0,0 l/m² 3,2 km/h NW - #5:00 h 2,1 UV-I 7,1 km/h